createdAt,value
2023-08-15T00:02:52.824Z,100162.72
2023-08-15T00:05:54.643Z,100158.25
2023-08-15T00:08:56.432Z,100147.84
2023-08-15T00:11:58.330Z,100149.88
2023-08-15T00:14:59.974Z,100150.06
2023-08-15T00:18:03.563Z,100145.34
2023-08-15T00:21:05.297Z,100151.91
2023-08-15T00:24:07.262Z,100149.53
2023-08-15T00:27:08.893Z,100144.44
2023-08-15T00:30:11.340Z,100138.56
2023-08-15T00:33:14.413Z,100151.78
2023-08-15T00:36:16.087Z,100146.72
2023-08-15T00:39:17.859Z,100139.88
2023-08-15T00:42:19.549Z,100143.59
2023-08-15T00:45:21.374Z,100141.94
2023-08-15T00:48:30.770Z,100137.63
2023-08-15T00:51:33.184Z,100132.75
2023-08-15T00:54:36.833Z,100123.09
2023-08-15T00:57:38.630Z,100127.22
2023-08-15T01:00:41.363Z,100131.84
2023-08-15T01:03:45.408Z,100135.19
2023-08-15T01:06:47.126Z,100130.31
2023-08-15T01:09:49.161Z,100134.06
2023-08-15T01:12:58.967Z,100129.94
2023-08-15T01:16:03.805Z,100122.78
2023-08-15T01:19:18.678Z,100130.97
2023-08-15T01:22:23.354Z,100131.94
2023-08-15T01:25:27.731Z,100122.25
2023-08-15T01:28:29.435Z,100119.34
2023-08-15T01:31:35.500Z,100123.00
2023-08-15T01:34:45.941Z,100125.66
2023-08-15T01:37:57.550Z,100122.94
2023-08-15T01:41:02.459Z,100133.38
2023-08-15T01:44:07.365Z,100132.78
2023-08-15T01:47:09.160Z,100126.81
2023-08-15T01:50:10.821Z,100118.34
2023-08-15T01:53:12.531Z,100116.91
2023-08-15T01:56:16.480Z,100113.06
2023-08-15T01:59:18.367Z,100116.88
2023-08-15T02:02:20.338Z,100121.63
2023-08-15T02:05:22.248Z,100114.19
2023-08-15T02:08:24.198Z,100129.97
2023-08-15T02:11:27.395Z,100140.06
2023-08-15T02:14:30.816Z,100136.31
2023-08-15T02:17:32.643Z,100135.81
2023-08-15T02:20:36.505Z,100145.91
2023-08-15T02:23:38.335Z,100139.19
2023-08-15T02:26:41.361Z,100143.88
2023-08-15T02:29:44.978Z,100151.63
2023-08-15T02:32:48.370Z,100166.09
2023-08-15T02:35:51.996Z,100213.28
2023-08-15T02:38:53.727Z,100232.16
2023-08-15T02:41:56.692Z,100195.41
2023-08-15T02:44:58.356Z,100226.16
2023-08-15T02:48:00.041Z,100237.13
2023-08-15T02:51:03.819Z,100233.78
2023-08-15T02:54:07.545Z,100232.94
2023-08-15T02:57:10.552Z,100221.34
2023-08-15T03:00:13.254Z,100223.69
2023-08-15T03:03:15.443Z,100204.25
2023-08-15T03:06:17.253Z,100210.97
2023-08-15T03:09:18.963Z,100206.84
2023-08-15T03:12:22.062Z,100205.47
2023-08-15T03:15:23.745Z,100196.94
2023-08-15T03:18:25.599Z,100173.00
2023-08-15T03:21:30.792Z,100167.31
2023-08-15T03:24:32.556Z,100175.41
2023-08-15T03:27:35.670Z,100162.34
2023-08-15T03:30:37.880Z,100163.38
2023-08-15T03:33:40.159Z,100164.19
2023-08-15T03:36:42.428Z,100174.56
2023-08-15T03:39:44.155Z,100172.09
2023-08-15T03:42:47.149Z,100182.88
2023-08-15T03:45:49.979Z,100177.16
2023-08-15T03:48:51.734Z,100179.22
2023-08-15T03:51:54.075Z,100176.00
2023-08-15T03:54:56.258Z,100170.09
2023-08-15T03:57:59.330Z,100178.09
2023-08-15T04:01:02.450Z,100188.66
2023-08-15T04:04:05.868Z,100195.41
2023-08-15T04:07:07.669Z,100199.34
2023-08-15T04:10:13.062Z,100211.03
2023-08-15T04:13:16.222Z,100225.47
2023-08-15T04:16:20.232Z,100269.16
2023-08-15T04:19:22.009Z,100285.34
2023-08-15T04:22:24.609Z,100278.00
2023-08-15T04:25:27.009Z,100318.47
2023-08-15T04:28:32.078Z,100297.53
2023-08-15T04:31:33.961Z,100324.97
2023-08-15T04:34:35.804Z,100340.00
2023-08-15T04:37:37.941Z,100331.56
2023-08-15T04:40:44.807Z,100328.56
2023-08-15T04:43:48.668Z,100343.75
2023-08-15T04:46:50.617Z,100344.44
2023-08-15T04:49:52.259Z,100345.25
2023-08-15T04:52:53.970Z,100346.75
2023-08-15T04:55:58.678Z,100348.59
2023-08-15T04:59:02.474Z,100315.88
2023-08-15T05:02:04.517Z,100320.25
2023-08-15T05:05:07.554Z,100330.25
2023-08-15T05:08:10.053Z,100320.63
2023-08-15T05:11:11.788Z,100319.13
2023-08-15T05:14:14.870Z,100317.13
2023-08-15T05:17:16.665Z,100317.13
2023-08-15T05:20:18.481Z,100305.16
2023-08-15T05:23:23.631Z,100298.31
2023-08-15T05:26:26.937Z,100289.38
2023-08-15T05:29:30.126Z,100288.91
2023-08-15T05:32:31.918Z,100279.88
2023-08-15T05:35:34.073Z,100267.53
2023-08-15T05:38:37.445Z,100262.34
2023-08-15T05:41:39.101Z,100264.19
2023-08-15T05:44:42.271Z,100260.47
2023-08-15T05:47:44.039Z,100250.16
2023-08-15T05:50:45.756Z,100243.88
2023-08-15T05:53:47.475Z,100231.69
2023-08-15T05:56:49.354Z,100227.41
2023-08-15T05:59:52.795Z,100223.06
2023-08-15T06:02:54.504Z,100231.72
2023-08-15T06:05:56.656Z,100218.91
2023-08-15T06:08:59.079Z,100220.22
2023-08-15T06:12:00.817Z,100218.84
2023-08-15T06:15:04.156Z,100214.75
2023-08-15T06:18:06.413Z,100217.88
2023-08-15T06:21:08.066Z,100231.63
2023-08-15T06:24:10.528Z,100223.72
2023-08-15T06:27:12.402Z,100217.19
2023-08-15T06:30:15.692Z,100209.63
2023-08-15T06:33:17.423Z,100207.00
2023-08-15T06:36:19.083Z,100206.66
2023-08-15T06:39:21.553Z,100210.47
2023-08-15T06:42:23.226Z,100207.75
2023-08-15T06:45:26.329Z,100204.56
2023-08-15T06:48:28.060Z,100210.88
2023-08-15T06:51:29.844Z,100212.06
2023-08-15T06:54:31.714Z,100209.06
2023-08-15T06:57:34.147Z,100212.97
2023-08-15T07:00:37.276Z,100211.16
2023-08-15T07:03:39.308Z,100223.66
2023-08-15T07:06:41.252Z,100222.44
2023-08-15T07:09:43.037Z,100222.50
2023-08-15T07:12:45.873Z,100233.66
2023-08-15T07:15:55.668Z,100244.56
2023-08-15T07:18:57.477Z,100242.16
2023-08-15T07:21:59.249Z,100240.34
2023-08-15T07:25:01.780Z,100243.56
2023-08-15T07:28:03.998Z,100254.19
2023-08-15T07:31:07.119Z,100268.41
2023-08-15T07:34:08.870Z,100261.34
2023-08-15T07:37:11.194Z,100261.81
2023-08-15T07:40:20.366Z,100270.28
2023-08-15T07:43:22.038Z,100281.66
2023-08-15T07:46:25.210Z,100281.50
2023-08-15T07:49:27.270Z,100295.81
2023-08-15T07:52:29.077Z,100287.72
2023-08-15T07:55:33.527Z,100290.25
2023-08-15T07:58:36.471Z,100293.28
2023-08-15T08:01:39.942Z,100295.47
2023-08-15T08:04:44.103Z,100294.88
2023-08-15T08:07:46.185Z,100282.28
2023-08-15T08:10:47.867Z,100280.25
2023-08-15T08:13:49.593Z,100269.66
2023-08-15T08:16:52.626Z,100276.97
2023-08-15T08:19:55.427Z,100281.59
2023-08-15T08:22:57.147Z,100287.16
2023-08-15T08:25:58.838Z,100285.13
2023-08-15T08:29:00.548Z,100298.63
2023-08-15T08:32:03.844Z,100294.59
2023-08-15T08:35:06.876Z,100301.41
2023-08-15T08:38:08.647Z,100309.41
2023-08-15T08:41:10.810Z,100321.91
2023-08-15T08:44:13.914Z,100316.25
2023-08-15T08:47:20.861Z,100323.66
2023-08-15T08:50:22.948Z,100320.06
2023-08-15T08:53:28.451Z,100317.50
2023-08-15T08:56:32.514Z,100322.13
2023-08-15T08:59:37.764Z,100328.97
2023-08-15T09:02:41.491Z,100329.47
2023-08-15T09:05:43.417Z,100327.88
2023-08-15T09:09:34.198Z,100324.53
2023-08-15T09:12:37.300Z,100332.53
2023-08-15T09:15:41.097Z,100340.44
2023-08-15T09:18:43.604Z,100344.66
2023-08-15T09:21:45.645Z,100332.69
2023-08-15T09:24:48.669Z,100324.00
2023-08-15T09:27:51.007Z,100327.28
2023-08-15T09:30:56.025Z,100330.88
2023-08-15T09:33:58.238Z,100338.78
2023-08-15T09:37:00.100Z,100336.38
2023-08-15T09:40:05.437Z,100343.75
2023-08-15T09:43:09.302Z,100335.50
2023-08-15T09:46:11.022Z,100332.56
2023-08-15T09:49:12.824Z,100329.91
2023-08-15T09:52:15.462Z,100335.28
2023-08-15T09:55:18.620Z,100327.91
2023-08-15T09:58:20.448Z,100333.03
2023-08-15T10:01:27.993Z,100327.94
2023-08-15T10:04:32.875Z,100323.69
2023-08-15T10:07:35.845Z,100332.84
2023-08-15T10:10:40.610Z,100344.22
2023-08-15T10:13:45.916Z,100345.41
2023-08-15T10:16:47.870Z,100352.06
2023-08-15T10:19:50.084Z,100358.25
2023-08-15T10:22:54.397Z,100360.19
2023-08-15T10:25:58.232Z,100362.81
2023-08-15T10:28:59.948Z,100362.50
2023-08-15T10:32:01.739Z,100369.22
2023-08-15T10:35:06.490Z,100382.97
2023-08-15T10:38:14.785Z,100384.47
2023-08-15T10:41:21.425Z,100379.59
2023-08-15T10:44:23.107Z,100394.53
2023-08-15T10:47:24.991Z,100387.84
2023-08-15T10:50:26.964Z,100382.47
2023-08-15T10:53:28.636Z,100383.56
2023-08-15T10:56:34.228Z,100377.94
2023-08-15T10:59:37.218Z,100378.19
2023-08-15T11:02:38.990Z,100374.03
2023-08-15T11:05:40.807Z,100384.16
2023-08-15T11:08:43.174Z,100384.03
2023-08-15T11:11:47.095Z,100379.31
2023-08-15T11:14:50.463Z,100380.44
2023-08-15T11:17:52.170Z,100374.75
2023-08-15T11:20:53.940Z,100371.19
2023-08-15T11:23:59.144Z,100367.88
2023-08-15T11:27:03.343Z,100377.31
2023-08-15T11:30:06.031Z,100373.72
2023-08-15T11:33:07.770Z,100371.63
2023-08-15T11:36:13.257Z,100394.88
2023-08-15T11:39:15.392Z,100392.63
2023-08-15T11:42:19.183Z,100398.75
2023-08-15T11:45:23.992Z,100399.94
2023-08-15T11:48:25.906Z,100412.56
2023-08-15T11:51:28.340Z,100418.19
2023-08-15T11:54:30.034Z,100424.06
2023-08-15T11:57:36.331Z,100420.44
2023-08-15T12:00:38.037Z,100424.69
2023-08-15T12:03:40.315Z,100421.19
2023-08-15T12:06:42.160Z,100441.16
2023-08-15T12:09:43.929Z,100412.72
2023-08-15T12:12:47.830Z,100416.53
2023-08-15T12:15:49.855Z,100411.44
2023-08-15T12:18:51.632Z,100419.81
2023-08-15T12:21:54.065Z,100422.25
2023-08-15T12:24:56.358Z,100416.31
2023-08-15T12:27:59.368Z,100409.31
2023-08-15T12:31:01.144Z,100423.59
2023-08-15T12:34:03.024Z,100417.00
2023-08-15T12:37:04.671Z,100418.03
2023-08-15T12:40:14.835Z,100413.97
2023-08-15T12:43:24.953Z,100420.78
2023-08-15T12:46:26.658Z,100422.59
2023-08-15T12:49:28.487Z,100423.91
2023-08-15T12:52:30.379Z,100426.38
2023-08-15T12:55:32.153Z,100422.19
2023-08-15T12:58:35.233Z,100422.03
2023-08-15T13:01:38.661Z,100424.00
2023-08-15T13:04:42.513Z,100429.66
2023-08-15T13:07:44.319Z,100426.75
2023-08-15T13:10:48.860Z,100433.88
2023-08-15T13:13:51.791Z,100434.34
2023-08-15T13:16:53.607Z,100431.16
2023-08-15T13:19:55.599Z,100440.59
2023-08-15T13:22:57.526Z,100438.41
2023-08-15T13:25:59.605Z,100443.69
2023-08-15T13:29:02.981Z,100448.03
2023-08-15T13:32:04.998Z,100440.88
2023-08-15T13:35:07.193Z,100425.88
2023-08-15T13:38:09.085Z,100434.91
2023-08-15T13:41:11.085Z,100446.19
2023-08-15T13:44:14.105Z,100445.53
2023-08-15T13:47:15.764Z,100445.63
2023-08-15T13:50:17.737Z,100440.47
2023-08-15T13:53:19.404Z,100447.50
2023-08-15T13:56:21.164Z,100433.88
2023-08-15T13:59:24.336Z,100435.00
2023-08-15T14:02:26.033Z,100436.31
2023-08-15T14:05:27.818Z,100439.16
2023-08-15T14:08:29.738Z,100437.31
2023-08-15T14:11:31.470Z,100428.63
2023-08-15T14:14:34.593Z,100416.69
2023-08-15T14:17:36.309Z,100421.69
2023-08-15T14:20:39.073Z,100422.84
2023-08-15T14:23:44.966Z,100432.75
2023-08-15T14:26:46.729Z,100426.00
2023-08-15T14:29:50.652Z,100431.91
2023-08-15T14:32:52.827Z,100427.00
2023-08-15T14:35:54.540Z,100432.88
2023-08-15T14:38:56.232Z,100431.41
2023-08-15T14:41:58.001Z,100425.69
2023-08-15T14:45:01.103Z,100424.28
2023-08-15T14:48:03.558Z,100426.22
2023-08-15T14:51:05.397Z,100427.56
2023-08-15T14:54:07.320Z,100433.31
2023-08-15T14:57:09.000Z,100415.72
2023-08-15T15:00:13.595Z,100417.16
2023-08-15T15:03:15.557Z,100417.63
2023-08-15T15:06:19.141Z,100408.47
2023-08-15T15:09:20.994Z,100430.00
2023-08-15T15:12:22.658Z,100426.63
2023-08-15T15:15:40.873Z,100431.63
2023-08-15T15:18:47.507Z,100423.75
2023-08-15T15:21:50.998Z,100418.84
2023-08-15T15:24:52.896Z,100422.72
2023-08-15T15:27:54.802Z,100423.22
2023-08-15T15:30:58.173Z,100422.34
2023-08-15T15:33:59.810Z,100433.66
2023-08-15T15:37:01.676Z,100428.75
2023-08-15T15:40:04.019Z,100428.63
2023-08-15T15:43:05.761Z,100434.75
2023-08-15T15:46:08.850Z,100435.94
2023-08-15T15:49:10.636Z,100430.09
2023-08-15T15:52:12.493Z,100434.78
2023-08-15T15:55:14.465Z,100444.81
2023-08-15T15:58:16.164Z,100442.59
2023-08-15T16:01:19.198Z,100442.97
2023-08-15T16:04:20.938Z,100440.72
2023-08-15T16:07:22.810Z,100436.22
2023-08-15T16:10:24.861Z,100437.78
2023-08-15T16:13:26.596Z,100430.50
2023-08-15T16:16:29.771Z,100429.81
2023-08-15T16:19:31.498Z,100426.47
2023-08-15T16:22:33.210Z,100422.09
2023-08-15T16:25:35.026Z,100419.94
2023-08-15T16:28:37.183Z,100409.94
2023-08-15T16:31:40.261Z,100416.09
2023-08-15T16:34:41.912Z,100408.94
2023-08-15T16:37:46.115Z,100409.00
2023-08-15T16:40:48.433Z,100409.94
2023-08-15T16:43:51.816Z,100413.50
2023-08-15T16:46:55.011Z,100410.69
2023-08-15T16:49:56.751Z,100405.03
2023-08-15T16:53:00.654Z,100396.06
2023-08-15T16:56:02.480Z,100402.97
2023-08-15T16:59:04.439Z,100403.09
2023-08-15T17:02:07.619Z,100407.78
2023-08-15T17:05:09.943Z,100410.69
2023-08-15T17:08:11.597Z,100408.78
2023-08-15T17:11:13.442Z,100416.41
2023-08-15T17:14:15.250Z,100415.16
2023-08-15T17:17:18.395Z,100430.13
2023-08-15T17:20:20.122Z,100436.69
2023-08-15T17:23:21.778Z,100437.78
2023-08-15T17:26:27.232Z,100447.88
2023-08-15T17:29:29.034Z,100458.25
2023-08-15T17:32:32.528Z,100460.50
2023-08-15T17:35:34.384Z,100462.94
2023-08-15T17:38:36.032Z,100456.88
2023-08-15T17:41:37.761Z,100462.66
2023-08-15T17:44:39.454Z,100463.34
2023-08-15T17:47:42.476Z,100470.72
2023-08-15T17:50:46.043Z,100475.38
2023-08-15T17:53:48.618Z,100476.59
2023-08-15T17:56:50.730Z,100477.91
2023-08-15T17:59:52.362Z,100472.47
2023-08-15T18:02:56.535Z,100486.56
2023-08-15T18:05:58.285Z,100498.13
2023-08-15T18:09:00.215Z,100499.34
2023-08-15T18:12:02.678Z,100501.09
2023-08-15T18:15:05.230Z,100499.34
2023-08-15T18:18:08.370Z,100496.41
2023-08-15T18:21:10.137Z,100505.88
2023-08-15T18:24:11.986Z,100518.34
2023-08-15T18:27:13.699Z,100534.19
2023-08-15T18:30:15.340Z,100535.41
2023-08-15T18:33:18.424Z,100546.00
2023-08-15T18:36:20.253Z,100544.25
2023-08-15T18:39:23.010Z,100541.31
2023-08-15T18:42:24.952Z,100542.53
2023-08-15T18:45:26.614Z,100539.19
2023-08-15T18:48:29.797Z,100549.16
2023-08-15T18:51:32.814Z,100552.13
2023-08-15T18:54:34.661Z,100569.88
2023-08-15T18:57:36.575Z,100564.88
2023-08-15T19:00:39.078Z,100562.53
2023-08-15T19:03:42.466Z,100570.06
2023-08-15T19:06:44.341Z,100568.78
2023-08-15T19:09:46.079Z,100578.31
2023-08-15T19:12:47.865Z,100573.81
2023-08-15T19:15:49.887Z,100594.88
2023-08-15T19:18:53.035Z,100594.63
2023-08-15T19:21:54.781Z,100585.34
2023-08-15T19:24:56.429Z,100593.06
2023-08-15T19:27:58.238Z,100602.34
2023-08-15T19:31:00.004Z,100595.94
2023-08-15T19:34:03.608Z,100594.03
2023-08-15T19:37:05.569Z,100597.22
2023-08-15T19:40:09.719Z,100602.72
2023-08-15T19:43:11.645Z,100603.78
2023-08-15T19:46:13.272Z,100600.53
2023-08-15T19:49:16.357Z,100600.53
2023-08-15T19:52:18.208Z,100595.06
2023-08-15T19:55:20.143Z,100598.91
2023-08-15T19:58:22.420Z,100591.56
2023-08-15T20:01:24.513Z,100596.63
2023-08-15T20:04:28.278Z,100590.78
2023-08-15T20:07:29.993Z,100590.16
2023-08-15T20:10:31.766Z,100586.31
2023-08-15T20:13:33.486Z,100587.97
2023-08-15T20:16:35.528Z,100578.97
2023-08-15T20:19:38.685Z,100569.31
2023-08-15T20:22:40.481Z,100566.44
2023-08-15T20:25:42.238Z,100569.56
2023-08-15T20:28:43.933Z,100572.72
2023-08-15T20:31:45.991Z,100582.38
2023-08-15T20:34:49.135Z,100583.50
2023-08-15T20:37:50.897Z,100576.22
2023-08-15T20:40:52.606Z,100586.41
2023-08-15T20:43:54.250Z,100580.56
2023-08-15T20:46:56.257Z,100588.91
2023-08-15T20:50:00.372Z,100583.56
2023-08-15T20:53:02.047Z,100587.25
2023-08-15T20:56:03.793Z,100595.28
2023-08-15T20:59:05.594Z,100592.78
2023-08-15T21:02:07.977Z,100603.44
2023-08-15T21:05:13.629Z,100591.88
2023-08-15T21:08:15.288Z,100597.09
2023-08-15T21:11:16.992Z,100594.88
2023-08-15T21:14:18.661Z,100595.19
2023-08-15T21:17:20.359Z,100594.00
2023-08-15T21:20:24.218Z,100597.94
2023-08-15T21:23:25.997Z,100595.34
2023-08-15T21:26:27.791Z,100599.94
2023-08-15T21:29:29.604Z,100598.66
2023-08-15T21:32:31.287Z,100594.88
2023-08-15T21:35:34.682Z,100591.41
2023-08-15T21:38:36.441Z,100587.06
2023-08-15T21:41:38.126Z,100593.97
2023-08-15T21:44:40.205Z,100592.94
2023-08-15T21:47:41.873Z,100595.34
2023-08-15T21:50:44.980Z,100593.50
2023-08-15T21:53:46.689Z,100596.09
2023-08-15T21:56:48.330Z,100609.59
2023-08-15T21:59:50.252Z,100606.56
2023-08-15T22:02:52.068Z,100602.00
2023-08-15T22:05:55.285Z,100611.81
2023-08-15T22:08:56.931Z,100606.31
2023-08-15T22:11:58.611Z,100607.47
2023-08-15T22:15:00.391Z,100607.59
2023-08-15T22:18:17.977Z,100601.63
2023-08-15T22:21:24.041Z,100613.13
2023-08-15T22:24:25.741Z,100612.38
2023-08-15T22:27:27.508Z,100617.81
2023-08-15T22:30:29.354Z,100607.16
2023-08-15T22:33:31.041Z,100609.44
2023-08-15T22:36:35.768Z,100612.63
2023-08-15T22:39:37.459Z,100617.06
2023-08-15T22:42:39.104Z,100611.56
2023-08-15T22:45:42.828Z,100614.81
2023-08-15T22:48:44.629Z,100613.50
2023-08-15T22:51:47.687Z,100617.34
2023-08-15T22:54:49.513Z,100620.41
2023-08-15T22:57:51.192Z,100611.88
2023-08-15T23:00:55.098Z,100603.00
2023-08-15T23:03:56.870Z,100603.72
2023-08-15T23:06:59.939Z,100608.53
2023-08-15T23:10:01.974Z,100605.31
2023-08-15T23:13:03.757Z,100605.53
2023-08-15T23:16:05.564Z,100603.94
2023-08-15T23:19:07.321Z,100604.63
2023-08-15T23:22:10.436Z,100595.88
2023-08-15T23:25:12.121Z,100594.22
2023-08-15T23:28:13.785Z,100600.97
2023-08-15T23:31:15.568Z,100597.91
2023-08-15T23:34:17.829Z,100595.47
2023-08-15T23:37:21.207Z,100600.38
2023-08-15T23:40:23.333Z,100590.63
2023-08-15T23:43:25.018Z,100590.13
2023-08-15T23:46:26.785Z,100589.94
2023-08-15T23:49:28.991Z,100593.41
2023-08-15T23:52:32.164Z,100587.47
2023-08-15T23:55:33.889Z,100586.69
2023-08-15T23:58:35.651Z,100585.75
